Time;durP1;ratioP1;P1;durP2;ratioP2;P2;SDS_P1;SDS_P2;PMS_P1;PMS_P2;Temp;Humidity;BMP_temperature;BMP_pressure;BME280_temperature;BME280_humidity;BME280_pressure;Samples;Min_cycle;Max_cycle;Signal;HPM_P1;HPM_P2
2024/01/23 00:01:56;;;;;;;67.10;39.70;;;12.60;64.50;;;;;;5068467;28;20086;-68
2024/01/23 00:04:22;;;;;;;56.30;32.63;;;12.80;59.30;;;;;;5067589;28;20040;-68
2024/01/23 00:06:48;;;;;;;61.03;38.45;;;12.90;55.40;;;;;;5068823;28;20427;-68
2024/01/23 00:09:13;;;;;;;58.75;38.08;;;12.60;53.50;;;;;;5050316;28;20135;-68
2024/01/23 00:11:39;;;;;;;51.35;35.33;;;12.80;54.20;;;;;;5051000;28;20040;-68
2024/01/23 00:14:04;;;;;;;71.68;41.80;;;12.60;55.60;;;;;;5068401;28;20086;-68
2024/01/23 00:16:30;;;;;;;77.72;41.97;;;12.60;56.80;;;;;;5067826;28;20381;-68
2024/01/23 00:18:55;;;;;;;79.35;44.55;;;12.60;58.60;;;;;;5049765;28;20036;-68
2024/01/23 00:21:21;;;;;;;74.25;44.50;;;12.60;59.60;;;;;;5062383;28;20498;-68
2024/01/23 00:23:46;;;;;;;65.45;37.03;;;12.70;59.90;;;;;;5067571;28;20505;-68
2024/01/23 00:26:12;;;;;;;68.80;37.60;;;12.60;58.80;;;;;;5067827;28;20523;-68
2024/01/23 00:28:38;;;;;;;81.25;45.25;;;12.80;60.10;;;;;;5066981;28;20055;-68
2024/01/23 00:31:04;;;;;;;83.15;43.63;;;12.50;60.30;;;;;;5066431;28;20044;-68
2024/01/23 00:33:29;;;;;;;83.85;43.60;;;12.80;61.30;;;;;;5067717;28;20508;-67
2024/01/23 00:35:55;;;;;;;76.35;42.20;;;12.70;61.80;;;;;;5067724;28;20048;-68
2024/01/23 00:38:20;;;;;;;74.43;41.65;;;12.70;61.50;;;;;;5052143;28;20064;-68
2024/01/23 00:40:46;;;;;;;73.45;37.47;;;12.50;59.80;;;;;;5068156;28;20053;-68
2024/01/23 00:43:12;;;;;;;72.57;37.75;;;12.70;57.50;;;;;;5067458;28;20040;-68
2024/01/23 00:45:38;;;;;;;80.25;45.05;;;12.50;58.90;;;;;;5067468;28;20044;-68
2024/01/23 00:48:04;;;;;;;79.22;45.00;;;12.70;60.80;;;;;;5067419;28;20416;-67
2024/01/23 00:50:29;;;;;;;81.35;46.92;;;12.40;59.80;;;;;;5047157;28;20123;-68
2024/01/23 00:52:55;;;;;;;63.25;38.97;;;12.60;61.50;;;;;;5065520;28;20040;-68
2024/01/23 00:55:20;;;;;;;84.18;45.20;;;12.40;62.40;;;;;;5067535;28;20043;-68
2024/01/23 00:57:46;;;;;;;71.35;43.28;;;12.40;63.30;;;;;;5067482;28;20493;-67
2024/01/23 01:00:12;;;;;;;86.72;44.22;;;12.40;64.70;;;;;;5049495;28;20393;-68
2024/01/23 01:02:37;;;;;;;72.78;43.10;;;12.70;63.40;;;;;;5067468;28;20587;-68
2024/01/23 01:05:03;;;;;;;52.03;35.88;;;12.70;63.30;;;;;;5067178;28;20049;-68
2024/01/23 01:07:29;;;;;;;81.47;43.70;;;12.70;59.00;;;;;;5067253;28;20043;-68
2024/01/23 01:09:55;;;;;;;73.57;42.92;;;12.40;60.50;;;;;;5066669;28;20047;-68
2024/01/23 01:12:21;;;;;;;57.47;35.22;;;12.70;61.80;;;;;;5067188;28;20515;-68
2024/01/23 01:14:46;;;;;;;74.68;43.83;;;12.70;58.90;;;;;;5066964;28;20347;-68
2024/01/23 01:17:12;;;;;;;74.30;44.25;;;12.40;60.10;;;;;;5067378;28;20072;-65
2024/01/23 01:19:38;;;;;;;59.97;36.38;;;12.40;59.30;;;;;;5065674;28;20042;-66
2024/01/23 01:22:05;;;;;;;72.60;42.67;;;12.50;58.60;;;;;;5067474;28;20511;-65
2024/01/23 01:24:31;;;;;;;76.70;43.28;;;12.40;58.80;;;;;;5066927;28;20087;-66
2024/01/23 01:26:56;;;;;;;74.13;41.47;;;12.40;58.10;;;;;;5067024;28;20489;-65
2024/01/23 01:29:22;;;;;;;83.18;43.85;;;12.70;56.60;;;;;;5067236;28;20044;-65
2024/01/23 01:31:47;;;;;;;65.25;38.90;;;12.70;56.80;;;;;;5066927;28;20411;-66
2024/01/23 01:34:13;;;;;;;82.38;42.28;;;12.70;55.90;;;;;;5066538;28;20432;-65
2024/01/23 01:36:39;;;;;;;84.63;44.85;;;12.40;56.00;;;;;;5066302;28;20528;-65
2024/01/23 01:39:06;;;;;;;84.05;45.45;;;12.50;54.60;;;;;;5048869;28;20045;-65
2024/01/23 01:41:31;;;;;;;81.38;44.83;;;12.70;55.50;;;;;;5066471;28;20047;-66
2024/01/23 01:43:57;;;;;;;76.07;38.85;;;12.70;59.60;;;;;;5065708;28;20048;-68
2024/01/23 01:46:24;;;;;;;83.18;45.15;;;12.50;54.20;;;;;;5067088;28;20040;-66
2024/01/23 01:48:51;;;;;;;84.50;44.60;;;12.40;55.20;;;;;;5065831;28;20106;-65
2024/01/23 01:51:25;;;;;;;86.60;44.92;;;12.50;56.60;;;;;;5048111;28;20792;-65
2024/01/23 01:53:51;;;;;;;80.95;44.28;;;12.50;57.50;;;;;;5066566;28;20094;-65
2024/01/23 01:56:23;;;;;;;91.70;45.17;;;12.40;58.80;;;;;;5066381;28;20052;-65
2024/01/23 01:58:49;;;;;;;82.68;43.50;;;12.60;59.90;;;;;;5066378;28;20090;-65
2024/01/23 02:01:15;;;;;;;93.90;45.75;;;12.40;57.00;;;;;;5066326;28;20048;-65
2024/01/23 02:03:41;;;;;;;75.88;38.45;;;13.20;56.30;;;;;;5066441;28;20064;-64
2024/01/23 02:06:07;;;;;;;67.57;36.65;;;12.30;54.00;;;;;;5067025;28;20540;-67
2024/01/23 02:08:36;;;;;;;82.00;42.92;;;12.60;51.00;;;;;;5066635;28;20074;-66
2024/01/23 02:11:02;;;;;;;57.78;34.55;;;12.70;48.70;;;;;;5065897;28;20114;-66
2024/01/23 02:13:28;;;;;;;85.75;41.70;;;12.40;45.10;;;;;;5065398;28;20036;-65
2024/01/23 02:15:54;;;;;;;83.88;42.50;;;12.50;45.20;;;;;;5066515;28;20101;-65
2024/01/23 02:18:20;;;;;;;76.95;40.92;;;12.70;43.60;;;;;;5048123;28;20050;-65
2024/01/23 02:20:46;;;;;;;75.65;36.15;;;12.70;42.10;;;;;;5065284;28;20482;-65
2024/01/23 02:23:13;;;;;;;83.90;42.28;;;12.90;38.40;;;;;;5066302;28;20508;-66
2024/01/23 02:25:43;;;;;;;75.22;40.08;;;11.80;36.40;;;;;;5065895;28;20563;-66
2024/01/23 02:28:09;;;;;;;48.40;33.50;;;12.50;34.90;;;;;;5065611;28;20122;-68
2024/01/23 02:30:35;;;;;;;78.28;40.85;;;12.50;32.30;;;;;;5064846;28;20082;-69
2024/01/23 02:33:05;;;;;;;73.97;36.83;;;12.80;29.60;;;;;;5065376;28;20048;-69
2024/01/23 02:35:31;;;;;;;76.32;36.75;;;12.80;26.90;;;;;;5064016;28;20040;-68
2024/01/23 02:37:57;;;;;;;51.50;30.58;;;12.70;24.90;;;;;;5064811;28;20053;-69
2024/01/23 02:40:23;;;;;;;75.55;40.10;;;12.80;22.50;;;;;;5047182;28;20055;-68
2024/01/23 02:42:49;;;;;;;73.95;37.78;;;12.80;21.80;;;;;;5047436;28;20051;-69
2024/01/23 02:45:15;;;;;;;76.97;38.35;;;12.80;20.50;;;;;;5065521;28;20048;-68
2024/01/23 02:47:40;;;;;;;74.82;39.08;;;12.90;20.40;;;;;;5065900;28;20645;-68
2024/01/23 02:50:07;;;;;;;56.00;32.67;;;12.80;21.00;;;;;;5066369;28;20045;-68
2024/01/23 02:52:32;;;;;;;81.05;40.78;;;13.10;20.50;;;;;;5065982;28;20472;-69
2024/01/23 02:54:58;;;;;;;69.35;35.70;;;12.90;21.60;;;;;;5065672;28;20079;-68
2024/01/23 02:57:25;;;;;;;81.63;42.42;;;12.90;29.60;;;;;;5030780;28;20040;-69
2024/01/23 02:59:54;;;;;;;77.38;42.53;;;15.00;24.50;;;;;;5064846;28;20051;-69
2024/01/23 03:02:23;;;;;;;59.65;34.97;;;12.90;25.30;;;;;;5064617;28;20040;-69
2024/01/23 03:04:49;;;;;;;84.32;41.15;;;12.80;23.90;;;;;;5065127;28;20033;-68
2024/01/23 03:07:16;;;;;;;69.82;40.05;;;12.80;23.80;;;;;;5064905;28;20105;-69
2024/01/23 03:09:41;;;;;;;80.28;38.03;;;13.10;21.80;;;;;;5064977;28;20082;-69
2024/01/23 03:12:17;;;;;;;68.03;33.17;;;13.10;21.40;;;;;;5064981;28;20052;-69
2024/01/23 03:14:43;;;;;;;76.97;41.05;;;13.10;21.70;;;;;;5064217;28;20120;-69
2024/01/23 03:17:13;;;;;;;86.93;40.95;;;13.00;23.00;;;;;;5065209;28;20098;-69
2024/01/23 03:19:40;;;;;;;59.10;33.85;;;13.20;23.40;;;;;;5058902;28;20044;-68
2024/01/23 03:22:05;;;;;;;89.00;40.53;;;13.20;23.00;;;;;;5064942;28;20723;-68
2024/01/23 03:24:32;;;;;;;81.68;40.50;;;13.20;25.10;;;;;;5065180;28;20346;-69
2024/01/23 03:26:57;;;;;;;50.63;31.17;;;13.10;24.70;;;;;;5065713;28;20048;-69
2024/01/23 03:29:24;;;;;;;89.22;41.53;;;13.50;24.40;;;;;;5046841;28;20086;-69
2024/01/23 03:31:50;;;;;;;86.20;41.15;;;13.20;25.10;;;;;;5051162;28;20075;-68
2024/01/23 03:34:16;;;;;;;79.68;40.83;;;13.20;25.60;;;;;;5069273;28;20474;-68
2024/01/23 03:36:42;;;;;;;79.72;41.17;;;13.30;24.70;;;;;;5069104;28;20139;-69
2024/01/23 03:39:08;;;;;;;87.30;40.13;;;13.00;25.30;;;;;;5068789;28;20127;-68
2024/01/23 03:41:37;;;;;;;87.68;42.00;;;12.90;24.90;;;;;;5068996;28;20049;-69
2024/01/23 03:44:05;;;;;;;83.75;42.83;;;13.60;25.60;;;;;;5068506;28;20090;-68
2024/01/23 03:46:30;;;;;;;89.78;41.67;;;13.30;25.90;;;;;;5033690;28;20066;-69
2024/01/23 03:48:56;;;;;;;69.18;34.35;;;13.80;26.90;;;;;;5068311;28;20040;-69
2024/01/23 03:51:22;;;;;;;54.25;33.25;;;13.00;27.00;;;;;;5051790;28;20049;-68
2024/01/23 03:53:47;;;;;;;92.25;42.10;;;12.90;28.30;;;;;;5048601;28;20045;-69
2024/01/23 03:56:13;;;;;;;87.15;43.78;;;13.20;28.60;;;;;;5063775;28;20471;-68
2024/01/23 03:58:40;;;;;;;96.85;41.25;;;13.20;28.60;;;;;;5068839;28;20075;-69
2024/01/23 04:01:05;;;;;;;89.65;44.47;;;13.10;28.50;;;;;;5068792;28;20102;-68
2024/01/23 04:03:31;;;;;;;94.78;42.47;;;13.20;28.40;;;;;;5068495;28;20465;-68
2024/01/23 04:05:56;;;;;;;58.53;32.88;;;13.10;29.00;;;;;;5067820;28;20511;-69
2024/01/23 04:08:22;;;;;;;94.40;41.35;;;13.00;38.30;;;;;;5068390;28;20579;-68
2024/01/23 04:10:48;;;;;;;78.43;38.95;;;14.20;28.60;;;;;;5050523;28;20513;-68
2024/01/23 04:13:13;;;;;;;92.95;47.47;;;13.20;27.30;;;;;;5050331;28;20490;-69
2024/01/23 04:15:39;;;;;;;71.93;40.33;;;13.20;27.50;;;;;;5038429;28;20032;-68
2024/01/23 04:18:04;;;;;;;77.63;42.53;;;13.00;27.10;;;;;;5067963;28;20063;-69
2024/01/23 04:20:30;;;;;;;77.38;40.65;;;13.10;25.60;;;;;;5067970;28;20463;-69
2024/01/23 04:22:55;;;;;;;60.70;32.40;;;13.30;24.50;;;;;;5066941;28;20574;-69
2024/01/23 04:25:21;;;;;;;87.28;40.60;;;13.30;22.30;;;;;;5067559;28;20547;-69
2024/01/23 04:27:46;;;;;;;88.32;42.20;;;13.10;22.40;;;;;;5068383;28;20040;-68
2024/01/23 04:30:12;;;;;;;66.20;34.58;;;13.10;21.70;;;;;;5067920;28;20040;-69
2024/01/23 04:32:38;;;;;;;91.35;45.05;;;12.90;20.60;;;;;;5051337;28;20064;-69
2024/01/23 04:35:04;;;;;;;85.65;44.53;;;13.00;22.80;;;;;;5055030;28;20040;-69
2024/01/23 04:37:29;;;;;;;94.60;46.05;;;13.00;22.70;;;;;;5067759;28;20130;-68
2024/01/23 04:39:55;;;;;;;96.82;47.17;;;12.70;25.00;;;;;;5068072;28;20532;-68
2024/01/23 04:42:21;;;;;;;71.70;36.25;;;13.40;28.90;;;;;;5067170;28;20040;-69
2024/01/23 04:44:47;;;;;;;92.13;48.83;;;13.00;29.90;;;;;;5066070;28;20163;-68
2024/01/23 04:47:12;;;;;;;80.22;42.58;;;12.70;32.60;;;;;;5067822;28;20123;-68
2024/01/23 04:49:38;;;;;;;100.22;50.75;;;12.80;35.60;;;;;;5066660;28;20052;-65
2024/01/23 04:52:04;;;;;;;71.60;37.58;;;12.80;38.60;;;;;;5052570;28;20048;-65
2024/01/23 04:54:29;;;;;;;92.32;47.15;;;12.90;41.40;;;;;;5064270;28;20052;-65
2024/01/23 04:56:55;;;;;;;95.68;49.00;;;12.90;43.50;;;;;;5067633;28;20036;-65
2024/01/23 04:59:20;;;;;;;93.18;48.45;;;12.90;44.50;;;;;;5067186;28;20037;-65
2024/01/23 05:01:46;;;;;;;98.00;50.15;;;12.90;46.70;;;;;;5067771;28;20032;-65
2024/01/23 05:04:11;;;;;;;103.30;49.88;;;12.80;47.00;;;;;;5067248;28;20068;-66
2024/01/23 05:06:37;;;;;;;100.95;49.95;;;12.90;48.70;;;;;;5067659;28;20060;-67
2024/01/23 05:09:03;;;;;;;91.80;48.45;;;12.70;48.80;;;;;;5067440;28;20048;-65
2024/01/23 05:11:29;;;;;;;69.93;37.80;;;12.80;50.40;;;;;;5067612;28;20106;-66
2024/01/23 05:13:54;;;;;;;95.47;48.72;;;13.60;50.50;;;;;;5066815;28;20132;-65
2024/01/23 05:16:20;;;;;;;73.63;40.47;;;12.70;50.40;;;;;;5067460;28;20362;-65
2024/01/23 05:18:46;;;;;;;79.97;41.55;;;12.80;50.00;;;;;;5067340;28;20447;-65
2024/01/23 05:21:14;;;;;;;94.53;46.70;;;12.80;52.90;;;;;;5049159;28;20465;-65
2024/01/23 05:23:40;;;;;;;95.03;46.63;;;12.70;53.90;;;;;;5066267;28;20044;-65
2024/01/23 05:26:07;;;;;;;107.28;52.05;;;12.60;55.20;;;;;;5067603;28;20044;-65
2024/01/23 05:28:32;;;;;;;101.90;47.75;;;12.60;54.20;;;;;;5066218;28;20047;-66
2024/01/23 05:30:58;;;;;;;105.97;47.60;;;12.60;53.50;;;;;;5064372;28;20098;-65
2024/01/23 05:33:24;;;;;;;77.57;39.42;;;12.90;55.00;;;;;;5066267;28;20553;-66
2024/01/23 05:35:49;;;;;;;106.88;48.05;;;13.20;56.20;;;;;;5048331;28;20055;-64
2024/01/23 05:38:15;;;;;;;114.22;49.30;;;12.60;59.00;;;;;;5066206;28;20056;-64
2024/01/23 05:40:40;;;;;;;69.97;38.83;;;12.60;59.10;;;;;;5067032;28;20406;-64
2024/01/23 05:43:06;;;;;;;95.50;47.40;;;12.60;61.00;;;;;;5048848;28;20466;-64
2024/01/23 05:45:31;;;;;;;117.53;50.08;;;12.50;62.30;;;;;;5066409;28;20097;-65
2024/01/23 05:47:57;;;;;;;110.20;50.78;;;12.80;64.20;;;;;;5066260;28;20052;-67
2024/01/23 05:50:24;;;;;;;96.32;49.35;;;12.60;63.90;;;;;;5065084;28;20379;-66
2024/01/23 05:52:49;;;;;;;98.38;50.83;;;12.60;61.70;;;;;;5046218;28;20617;-65
2024/01/23 05:55:15;;;;;;;97.55;48.78;;;14.60;61.70;;;;;;5046062;28;20044;-65
2024/01/23 05:57:40;;;;;;;86.72;43.35;;;13.40;62.40;;;;;;5050853;28;20044;-65
2024/01/23 06:00:09;;;;;;;98.57;50.08;;;12.70;62.40;;;;;;5066293;28;20046;-65
2024/01/23 06:02:35;;;;;;;113.15;53.25;;;12.70;63.70;;;;;;5082016;28;20116;-65
2024/01/23 06:05:00;;;;;;;116.82;53.03;;;12.40;70.70;;;;;;5066169;28;20067;-65
2024/01/23 06:07:26;;;;;;;113.18;54.08;;;12.70;73.30;;;;;;5065886;28;20044;-64
2024/01/23 06:09:52;;;;;;;120.53;53.17;;;12.60;76.30;;;;;;5065704;28;20071;-65
2024/01/23 06:12:18;;;;;;;112.07;51.60;;;12.40;77.60;;;;;;5047689;28;20052;-66
2024/01/23 06:14:43;;;;;;;103.90;52.30;;;12.70;80.60;;;;;;5066656;28;20075;-65
2024/01/23 06:17:09;;;;;;;85.88;44.30;;;12.50;81.90;;;;;;5065720;28;20479;-65
2024/01/23 06:19:35;;;;;;;83.15;44.60;;;12.40;82.50;;;;;;5065607;28;20045;-65
2024/01/23 06:22:00;;;;;;;96.25;45.28;;;12.30;84.30;;;;;;5047676;28;20048;-65
2024/01/23 06:24:26;;;;;;;83.97;45.17;;;12.50;84.40;;;;;;5047444;28;20051;-65
2024/01/23 06:26:51;;;;;;;105.10;55.65;;;12.30;84.30;;;;;;5065221;28;20093;-65
2024/01/23 06:29:17;;;;;;;86.88;45.80;;;12.30;84.20;;;;;;5065225;28;20921;-65
2024/01/23 06:31:43;;;;;;;115.40;57.13;;;12.10;83.70;;;;;;5065442;28;20040;-65
2024/01/23 06:34:09;;;;;;;120.60;59.92;;;12.10;86.00;;;;;;5065204;28;20055;-65
2024/01/23 06:36:36;;;;;;;98.60;49.78;;;12.30;90.00;;;;;;5065290;28;20052;-65
2024/01/23 06:39:02;;;;;;;109.78;54.75;;;12.40;92.30;;;;;;5065358;28;20048;-66
2024/01/23 06:41:27;;;;;;;117.55;55.80;;;12.30;95.30;;;;;;5065316;28;20408;-65
2024/01/23 06:43:53;;;;;;;102.57;49.47;;;12.50;96.40;;;;;;5065539;28;20040;-65
2024/01/23 06:46:20;;;;;;;106.53;55.58;;;12.20;98.30;;;;;;5065994;28;20052;-66
2024/01/23 06:48:45;;;;;;;121.38;56.42;;;12.20;98.30;;;;;;5066093;28;20390;-66
2024/01/23 06:51:11;;;;;;;118.95;56.95;;;12.20;98.70;;;;;;5063628;28;20040;-65
2024/01/23 06:53:37;;;;;;;116.25;57.67;;;12.20;99.50;;;;;;5062227;28;20040;-66
2024/01/23 06:56:02;;;;;;;108.28;58.10;;;12.40;99.40;;;;;;5056698;28;20041;-65
2024/01/23 06:58:28;;;;;;;117.75;58.10;;;12.40;98.60;;;;;;5056051;28;20033;-66
2024/01/23 07:00:53;;;;;;;89.40;47.95;;;12.30;99.70;;;;;;5060777;28;20036;-65
2024/01/23 07:03:19;;;;;;;114.88;60.90;;;12.30;99.50;;;;;;5050547;28;20041;-65
2024/01/23 07:05:44;;;;;;;112.55;61.65;;;12.30;99.90;;;;;;5058768;28;20052;-66
2024/01/23 07:08:10;;;;;;;102.82;48.80;;;12.00;99.90;;;;;;5057037;28;21393;-66
2024/01/23 07:10:36;;;;;;;89.32;45.20;;;11.90;99.90;;;;;;5064203;28;20048;-65
2024/01/23 07:13:01;;;;;;;117.10;47.22;;;12.00;99.90;;;;;;5066480;28;20360;-65
2024/01/23 07:15:27;;;;;;;115.13;54.38;;;12.30;99.90;;;;;;5044201;28;20037;-65
2024/01/23 07:17:53;;;;;;;117.20;55.63;;;12.20;99.90;;;;;;5028403;28;20139;-65
2024/01/23 07:20:19;;;;;;;91.10;42.08;;;12.40;99.90;;;;;;5061619;28;20036;-65
2024/01/23 07:22:44;;;;;;;107.85;50.78;;;12.50;99.90;;;;;;5044842;28;20040;-65
2024/01/23 07:25:10;;;;;;;105.95;53.33;;;12.50;99.90;;;;;;5061689;28;20037;-66
2024/01/23 07:27:35;;;;;;;88.22;43.72;;;12.30;99.90;;;;;;5061816;28;20563;-66
2024/01/23 07:30:01;;;;;;;112.30;51.53;;;12.30;99.90;;;;;;5045684;28;20093;-65
2024/01/23 07:32:27;;;;;;;112.63;53.45;;;12.50;99.90;;;;;;5061285;28;20117;-66
2024/01/23 07:34:52;;;;;;;103.38;51.28;;;12.30;99.90;;;;;;5063970;28;20082;-64
2024/01/23 07:37:18;;;;;;;84.88;43.63;;;12.30;99.90;;;;;;5064306;28;20059;-66
2024/01/23 07:39:43;;;;;;;105.47;55.17;;;12.20;99.90;;;;;;5044969;28;20060;-66
2024/01/23 07:42:11;;;;;;;114.03;53.60;;;12.20;99.90;;;;;;5057331;28;20037;-66
2024/01/23 07:44:39;;;;;;;105.53;56.35;;;12.50;99.90;;;;;;5052504;28;20059;-67
2024/01/23 07:47:05;;;;;;;100.15;55.50;;;12.20;99.90;;;;;;5075540;28;20059;-67
2024/01/23 07:49:31;;;;;;;80.35;45.03;;;12.50;99.90;;;;;;5061851;28;20045;-63
2024/01/23 07:51:56;;;;;;;87.70;46.28;;;12.10;99.90;;;;;;5059729;28;20055;-63
2024/01/23 07:54:22;;;;;;;102.07;46.85;;;12.10;99.90;;;;;;5055972;28;21052;-62
2024/01/23 07:56:50;;;;;;;112.95;57.80;;;12.10;99.90;;;;;;5054914;28;20517;-63
2024/01/23 07:59:16;;;;;;;86.10;49.15;;;12.20;99.90;;;;;;5054538;28;20028;-65
2024/01/23 08:01:42;;;;;;;86.72;45.78;;;12.40;99.90;;;;;;5054662;28;20032;-65
2024/01/23 08:04:08;;;;;;;118.22;55.13;;;12.00;99.90;;;;;;5055606;28;20091;-65
2024/01/23 08:06:33;;;;;;;83.38;46.17;;;12.30;99.90;;;;;;5045415;28;20040;-66
2024/01/23 08:08:59;;;;;;;97.43;50.78;;;12.30;99.90;;;;;;5063411;28;20129;-65
2024/01/23 08:11:24;;;;;;;101.72;56.53;;;12.00;99.90;;;;;;5062684;28;20115;-66
2024/01/23 08:13:50;;;;;;;104.50;54.97;;;11.90;99.90;;;;;;5062566;28;20049;-67
2024/01/23 08:16:16;;;;;;;98.95;50.58;;;12.00;99.90;;;;;;5038567;28;20047;-67
2024/01/23 08:18:41;;;;;;;89.72;50.10;;;12.30;99.90;;;;;;5062800;28;20115;-68
2024/01/23 08:21:09;;;;;;;85.07;45.90;;;12.30;99.90;;;;;;5047452;28;20044;-68
2024/01/23 08:23:35;;;;;;;115.22;55.30;;;12.30;99.90;;;;;;5049284;28;20048;-68
2024/01/23 08:26:03;;;;;;;111.70;49.38;;;12.20;99.90;;;;;;5047278;28;20121;-68
2024/01/23 08:28:28;;;;;;;111.50;56.10;;;12.10;99.90;;;;;;5046902;28;20421;-68
2024/01/23 08:30:54;;;;;;;106.82;56.00;;;12.50;99.90;;;;;;5048067;28;20087;-68
2024/01/23 08:33:21;;;;;;;107.57;49.55;;;12.50;99.90;;;;;;5066220;28;20040;-68
2024/01/23 08:35:47;;;;;;;116.60;55.65;;;12.20;99.90;;;;;;5045505;28;20875;-68
2024/01/23 08:38:13;;;;;;;113.57;55.90;;;12.60;99.90;;;;;;5041777;28;20081;-68
2024/01/23 08:40:39;;;;;;;87.05;45.42;;;12.20;99.90;;;;;;5041505;28;20048;-69
2024/01/23 08:43:05;;;;;;;90.90;48.53;;;12.20;99.90;;;;;;5043715;28;20036;-68
2024/01/23 08:45:31;;;;;;;104.95;49.60;;;12.40;99.90;;;;;;5040696;28;20472;-69
2024/01/23 08:47:58;;;;;;;123.50;58.17;;;12.40;99.90;;;;;;5042713;28;20073;-69
2024/01/23 08:50:23;;;;;;;98.63;53.63;;;12.50;99.90;;;;;;5042368;28;20087;-69
2024/01/23 08:52:49;;;;;;;119.60;59.25;;;12.70;99.90;;;;;;5044863;28;20557;-69
2024/01/23 08:55:15;;;;;;;111.68;59.63;;;12.40;99.90;;;;;;5042845;28;20456;-69
2024/01/23 08:57:41;;;;;;;113.90;58.10;;;12.50;99.90;;;;;;5041621;28;20064;-69
2024/01/23 09:00:08;;;;;;;103.20;60.10;;;12.60;99.90;;;;;;5042565;28;20524;-69
2024/01/23 09:02:34;;;;;;;98.93;54.97;;;12.60;99.90;;;;;;5040814;28;20055;-69
2024/01/23 09:04:59;;;;;;;97.88;54.88;;;12.60;99.90;;;;;;5044989;28;20406;-69
2024/01/23 09:07:25;;;;;;;101.35;57.03;;;13.00;99.90;;;;;;5039499;28;20462;-69
2024/01/23 09:09:51;;;;;;;111.22;58.22;;;12.80;99.90;;;;;;5037398;28;20033;-69
2024/01/23 09:12:17;;;;;;;105.78;57.85;;;13.10;99.90;;;;;;5034392;28;20040;-69
2024/01/23 09:14:43;;;;;;;98.85;53.78;;;12.80;99.90;;;;;;5040051;28;20044;-69
2024/01/23 09:17:09;;;;;;;94.15;54.47;;;13.10;99.90;;;;;;5026719;28;20045;-69
2024/01/23 09:19:34;;;;;;;110.93;57.72;;;13.10;99.90;;;;;;5041084;28;20033;-69
2024/01/23 09:22:00;;;;;;;114.25;55.45;;;13.00;99.90;;;;;;5036543;28;20045;-69
2024/01/23 09:24:26;;;;;;;98.18;51.15;;;13.80;99.90;;;;;;5037358;28;20059;-69
2024/01/23 09:26:51;;;;;;;105.93;52.30;;;13.10;99.90;;;;;;5035597;28;20052;-68
2024/01/23 09:29:17;;;;;;;112.03;53.70;;;12.70;99.90;;;;;;5037784;28;20512;-69
2024/01/23 09:31:46;;;;;;;108.68;55.22;;;12.90;99.90;;;;;;5043739;28;20087;-69
2024/01/23 09:34:13;;;;;;;98.93;51.20;;;12.70;99.90;;;;;;5044207;28;20059;-69
2024/01/23 09:36:38;;;;;;;117.00;52.80;;;13.00;99.90;;;;;;5047979;28;20116;-69
2024/01/23 09:39:04;;;;;;;99.88;53.45;;;13.10;99.90;;;;;;5047364;28;20052;-69
2024/01/23 09:41:33;;;;;;;110.15;51.40;;;13.00;99.90;;;;;;5047883;28;20454;-69
2024/01/23 09:43:59;;;;;;;102.95;49.85;;;13.00;99.90;;;;;;5066007;28;20056;-69
2024/01/23 09:46:25;;;;;;;101.43;49.70;;;13.20;99.90;;;;;;5064270;28;20125;-69
2024/01/23 09:48:52;;;;;;;101.32;50.08;;;13.50;99.90;;;;;;5063814;28;20048;-69
2024/01/23 09:51:19;;;;;;;106.35;48.03;;;13.40;99.90;;;;;;5061673;28;20037;-69
2024/01/23 09:53:46;;;;;;;89.32;46.92;;;13.60;99.90;;;;;;5063050;28;20051;-69
2024/01/23 09:56:12;;;;;;;105.97;48.83;;;13.30;99.90;;;;;;5062614;28;20102;-69
2024/01/23 09:58:38;;;;;;;102.82;49.63;;;13.40;99.90;;;;;;5064501;28;20059;-69
2024/01/23 10:01:05;;;;;;;107.32;49.15;;;13.60;99.90;;;;;;5047594;28;20033;-69
2024/01/23 10:03:33;;;;;;;97.80;48.70;;;13.40;99.90;;;;;;5045252;28;20056;-69
2024/01/23 10:05:59;;;;;;;107.90;49.88;;;13.20;99.90;;;;;;5061598;28;20087;-69
2024/01/23 10:08:25;;;;;;;111.47;49.83;;;13.50;99.90;;;;;;5045861;28;20139;-69
2024/01/23 10:11:01;;;;;;;106.53;49.35;;;13.20;99.90;;;;;;5063654;28;20036;-69
2024/01/23 10:13:27;;;;;;;105.20;51.67;;;13.50;99.90;;;;;;5041555;28;20086;-65
2024/01/23 10:15:54;;;;;;;111.70;56.40;;;13.30;99.90;;;;;;5059094;28;20028;-68
2024/01/23 10:18:21;;;;;;;114.28;52.75;;;13.40;99.90;;;;;;5057896;28;20041;-68
2024/01/23 10:20:47;;;;;;;114.40;53.70;;;13.50;99.90;;;;;;5062259;28;20044;-69
2024/01/23 10:23:13;;;;;;;106.75;50.92;;;13.10;99.90;;;;;;5063087;28;20479;-69
2024/01/23 10:25:40;;;;;;;116.32;52.22;;;13.20;99.90;;;;;;5026818;28;20095;-69
2024/01/23 10:28:10;;;;;;;114.28;52.67;;;13.20;99.90;;;;;;5041820;28;20075;-69
2024/01/23 10:30:39;;;;;;;108.50;49.97;;;13.30;99.90;;;;;;5061968;28;20036;-68
2024/01/23 10:33:10;;;;;;;106.00;52.33;;;13.40;99.90;;;;;;5061863;28;20048;-69
2024/01/23 10:35:35;;;;;;;98.57;48.78;;;13.60;99.90;;;;;;5042625;28;20075;-68
2024/01/23 10:38:07;;;;;;;103.82;51.45;;;13.70;99.90;;;;;;5060664;28;20099;-69
2024/01/23 10:40:33;;;;;;;100.53;50.67;;;15.20;99.90;;;;;;5043668;28;20033;-67
2024/01/23 10:42:59;;;;;;;100.60;49.55;;;13.70;99.90;;;;;;5061845;28;20047;-67
2024/01/23 10:45:25;;;;;;;92.18;46.17;;;13.30;99.90;;;;;;5042611;28;20765;-66
2024/01/23 10:47:52;;;;;;;89.72;48.13;;;13.40;99.90;;;;;;5061731;28;20041;-67
2024/01/23 10:50:20;;;;;;;83.15;45.70;;;13.80;99.90;;;;;;5042912;28;20130;-68
2024/01/23 10:52:47;;;;;;;84.03;44.75;;;13.50;99.90;;;;;;5060212;28;20048;-67
2024/01/23 10:55:13;;;;;;;92.60;45.40;;;13.50;97.80;;;;;;5061589;28;20052;-66
2024/01/23 10:57:43;;;;;;;94.45;45.95;;;13.50;96.50;;;;;;5061683;28;20115;-66
2024/01/23 11:00:13;;;;;;;87.80;47.38;;;13.60;95.90;;;;;;5057605;28;20410;-66
2024/01/23 11:03:06;;;;;;;81.53;40.60;;;13.80;94.80;;;;;;5059738;28;20084;-67
2024/01/23 11:05:46;;;;;;;95.82;48.85;;;13.50;94.40;;;;;;5054717;28;20052;-68
2024/01/23 11:08:18;;;;;;;101.00;49.25;;;13.50;96.10;;;;;;5061019;28;20510;-67
2024/01/23 11:10:52;;;;;;;105.20;49.70;;;13.50;93.70;;;;;;5060394;28;20048;-68
2024/01/23 11:13:44;;;;;;;61.33;41.38;;;13.40;93.50;;;;;;5054468;28;20048;-66
2024/01/23 11:16:10;;;;;;;93.82;48.17;;;13.30;94.00;;;;;;5036966;28;20547;-67
2024/01/23 11:18:36;;;;;;;98.93;49.38;;;13.60;93.10;;;;;;5059403;28;20113;-66
2024/01/23 11:21:05;;;;;;;102.13;50.75;;;13.50;93.30;;;;;;5062047;28;20536;-66
2024/01/23 11:23:31;;;;;;;91.97;48.55;;;13.40;93.50;;;;;;5056097;28;20505;-67
2024/01/23 11:26:04;;;;;;;95.90;46.80;;;13.20;93.60;;;;;;5054143;28;20509;-68
2024/01/23 11:28:35;;;;;;;89.55;48.17;;;13.60;95.80;;;;;;5060593;28;20076;-66
2024/01/23 11:31:07;;;;;;;85.88;45.30;;;13.30;96.50;;;;;;5059480;28;20044;-68
2024/01/23 11:33:34;;;;;;;94.53;45.35;;;13.30;95.00;;;;;;5043185;28;20110;-67
2024/01/23 11:36:11;;;;;;;66.10;38.35;;;13.20;97.00;;;;;;5058929;28;20047;-67
2024/01/23 11:38:48;;;;;;;88.22;45.33;;;13.20;99.90;;;;;;5061180;28;20049;-65
2024/01/23 11:41:21;;;;;;;72.20;39.92;;;13.60;99.90;;;;;;5061731;28;20039;-66
2024/01/23 11:43:48;;;;;;;62.45;36.88;;;13.70;99.90;;;;;;5045409;28;20052;-67
2024/01/23 11:46:17;;;;;;;87.10;45.38;;;13.60;99.60;;;;;;5061575;28;20029;-66
2024/01/23 11:48:44;;;;;;;91.40;47.85;;;13.90;99.90;;;;;;5045814;28;20127;-67
2024/01/23 11:51:14;;;;;;;59.95;37.78;;;13.40;99.90;;;;;;5043884;28;20052;-66
2024/01/23 11:53:41;;;;;;;62.03;38.90;;;13.40;99.90;;;;;;5064690;28;20049;-65
2024/01/23 11:56:09;;;;;;;56.03;37.00;;;13.60;99.90;;;;;;5064219;28;20043;-68
2024/01/23 11:58:34;;;;;;;79.30;43.40;;;13.80;99.90;;;;;;5065352;28;20036;-68
2024/01/23 12:01:01;;;;;;;61.22;38.72;;;13.70;99.90;;;;;;5064600;28;20610;-66
2024/01/23 12:03:28;;;;;;;80.55;45.65;;;13.70;99.90;;;;;;5040480;28;20223;-68
2024/01/23 12:05:54;;;;;;;82.57;44.08;;;13.70;99.90;;;;;;5057553;28;20047;-68
2024/01/23 12:08:21;;;;;;;87.28;45.85;;;13.70;99.90;;;;;;5060015;28;20501;-67
2024/01/23 12:10:47;;;;;;;88.70;46.60;;;13.40;99.90;;;;;;5064440;28;20044;-66
2024/01/23 12:13:13;;;;;;;82.60;46.45;;;13.60;99.90;;;;;;5064128;28;20075;-66
2024/01/23 12:15:39;;;;;;;77.30;42.42;;;13.80;99.90;;;;;;5044314;28;20037;-66
2024/01/23 12:18:04;;;;;;;75.75;43.05;;;13.90;99.90;;;;;;5064979;28;20045;-68
2024/01/23 12:20:30;;;;;;;86.05;44.20;;;14.00;99.90;;;;;;5048867;28;20527;-67